Time;durP1;ratioP1;P1;durP2;ratioP2;P2;SDS_P1;SDS_P2;PMS_P1;PMS_P2;Temp;Humidity;BMP_temperature;BMP_pressure;BME280_temperature;BME280_humidity;BME280_pressure;Samples;Min_cycle;Max_cycle;Signal;HPM_P1;HPM_P2
2022/02/07 00:00:40;;;;;;;1.63;1.20;;;;;;;;;;5093793;28;20256;-87
2022/02/07 00:03:15;;;;;;;2.13;1.60;;;;;;;;;;5094027;28;20282;-86
2022/02/07 00:05:44;;;;;;;6.53;1.30;;;;;;;;;;5094425;28;20196;-87
2022/02/07 00:08:13;;;;;;;1.40;1.30;;;;;;;;;;5094530;28;20206;-86
2022/02/07 00:10:42;;;;;;;2.25;1.13;;;;;;;;;;5094211;28;20228;-87
2022/02/07 00:13:10;;;;;;;3.83;1.08;;;;;;;;;;5093885;28;20200;-87
2022/02/07 00:15:38;;;;;;;1.05;0.80;;;;;;;;;;5094339;28;20226;-85
2022/02/07 00:18:06;;;;;;;1.45;0.65;;;;;;;;;;5093927;28;20546;-86
2022/02/07 00:20:34;;;;;;;1.27;0.90;;;;;;;;;;5094268;28;20232;-86
2022/02/07 00:23:03;;;;;;;0.50;0.50;;;;;;;;;;5093648;28;20192;-86
2022/02/07 00:25:30;;;;;;;0.80;0.65;;;;;;;;;;5093461;28;20209;-86
2022/02/07 00:27:58;;;;;;;0.80;0.80;;;;;;;;;;5094075;28;20208;-86
2022/02/07 00:30:25;;;;;;;0.50;0.50;;;;;;;;;;5094497;28;20265;-86
2022/02/07 00:32:52;;;;;;;1.70;1.00;;;;;;;;;;5094692;28;20282;-86
2022/02/07 00:35:23;;;;;;;0.70;0.70;;;;;;;;;;5095236;28;20208;-86
2022/02/07 00:37:55;;;;;;;2.42;0.90;;;;;;;;;;5095647;28;20219;-86
2022/02/07 00:40:39;;;;;;;0.70;0.70;;;;;;;;;;5094471;28;20212;-86
2022/02/07 00:43:16;;;;;;;0.60;0.60;;;;;;;;;;5094903;28;20201;-87
2022/02/07 00:45:51;;;;;;;2.58;1.00;;;;;;;;;;5095352;28;20237;-86
2022/02/07 00:48:22;;;;;;;0.90;0.90;;;;;;;;;;5096289;28;20675;-86
2022/02/07 00:50:51;;;;;;;3.10;0.80;;;;;;;;;;5095493;28;20221;-86
2022/02/07 00:53:19;;;;;;;4.57;1.20;;;;;;;;;;5095072;28;20254;-86
2022/02/07 00:55:47;;;;;;;2.05;1.17;;;;;;;;;;5096066;28;20200;-87
2022/02/07 00:58:15;;;;;;;1.60;1.05;;;;;;;;;;5096278;28;20196;-86
2022/02/07 01:00:42;;;;;;;1.48;0.80;;;;;;;;;;5095546;28;20212;-86
2022/02/07 01:03:10;;;;;;;3.60;0.90;;;;;;;;;;5095513;28;20684;-86
2022/02/07 01:05:37;;;;;;;1.60;1.10;;;;;;;;;;5101188;28;20208;-86
2022/02/07 01:08:06;;;;;;;4.53;2.08;;;;;;;;;;5099376;28;20196;-86
2022/02/07 01:10:41;;;;;;;1.90;0.98;;;;;;;;;;5099422;28;20277;-86
2022/02/07 01:13:17;;;;;;;3.00;1.33;;;;;;;;;;5099370;28;20337;-86
2022/02/07 01:15:53;;;;;;;2.45;1.10;;;;;;;;;;5098213;28;20277;-86
2022/02/07 01:18:46;;;;;;;1.90;1.10;;;;;;;;;;5098501;28;20243;-86
2022/02/07 01:52:17;;;;;;;3.53;1.73;;;;;;;;;;5063890;28;20220;-86
2022/02/07 01:54:48;;;;;;;3.92;1.50;;;;;;;;;;5097625;28;20207;-87
2022/02/07 01:57:15;;;;;;;3.85;1.73;;;;;;;;;;5097633;28;20204;-86
2022/02/07 01:59:43;;;;;;;4.82;1.45;;;;;;;;;;5098169;28;20207;-85
2022/02/07 02:02:12;;;;;;;6.57;1.48;;;;;;;;;;5098895;28;20287;-86
2022/02/07 02:04:39;;;;;;;5.75;2.33;;;;;;;;;;5097657;28;20235;-86
2022/02/07 02:07:06;;;;;;;2.83;1.10;;;;;;;;;;5098130;28;20211;-86
2022/02/07 02:09:34;;;;;;;3.03;1.13;;;;;;;;;;5098373;28;20197;-87
2022/02/07 02:12:03;;;;;;;4.90;1.85;;;;;;;;;;5097398;28;20227;-86
2022/02/07 02:14:40;;;;;;;5.80;1.88;;;;;;;;;;5096757;28;20249;-86
2022/02/07 02:22:53;;;;;;;5.47;1.50;;;;;;;;;;5085106;28;20215;-87
2022/02/07 02:36:33;;;;;;;3.92;1.50;;;;;;;;;;5048036;28;20200;-87
2022/02/07 02:47:22;;;;;;;3.13;1.27;;;;;;;;;;5095007;28;20242;-87
2022/02/07 02:50:02;;;;;;;7.65;2.05;;;;;;;;;;5096326;28;20702;-86
2022/02/07 02:52:29;;;;;;;5.18;1.60;;;;;;;;;;5096873;28;20196;-86
2022/02/07 02:54:58;;;;;;;2.78;1.42;;;;;;;;;;5095978;28;20192;-86
2022/02/07 02:57:25;;;;;;;2.83;1.48;;;;;;;;;;5095465;28;20203;-86
2022/02/07 02:59:53;;;;;;;4.88;1.48;;;;;;;;;;5094939;28;20224;-87
2022/02/07 03:02:20;;;;;;;2.42;1.33;;;;;;;;;;5095305;28;20618;-86
2022/02/07 03:04:47;;;;;;;1.45;1.23;;;;;;;;;;5095162;28;20200;-87
2022/02/07 03:07:15;;;;;;;1.50;1.40;;;;;;;;;;5095015;28;20230;-86
2022/02/07 03:09:48;;;;;;;2.17;1.30;;;;;;;;;;5095011;28;20212;-86
2022/02/07 03:12:18;;;;;;;5.13;1.92;;;;;;;;;;5094896;28;20201;-87
2022/02/07 03:14:47;;;;;;;2.58;1.20;;;;;;;;;;5095481;28;20273;-87
2022/02/07 03:17:14;;;;;;;5.30;2.47;;;;;;;;;;5094938;28;20205;-86
2022/02/07 03:19:42;;;;;;;4.63;1.70;;;;;;;;;;5093900;28;20291;-87
2022/02/07 03:22:10;;;;;;;3.20;1.40;;;;;;;;;;5094391;28;20197;-86
2022/02/07 03:24:37;;;;;;;5.63;1.80;;;;;;;;;;5094745;28;20197;-86
2022/02/07 03:27:05;;;;;;;4.45;1.67;;;;;;;;;;5094656;28;20200;-87
2022/02/07 03:29:34;;;;;;;2.03;1.50;;;;;;;;;;5094597;28;20197;-86
2022/02/07 03:32:01;;;;;;;2.53;1.40;;;;;;;;;;5094103;28;20231;-86
2022/02/07 03:34:28;;;;;;;5.57;2.78;;;;;;;;;;5095669;28;20688;-86
2022/02/07 03:36:55;;;;;;;5.70;1.63;;;;;;;;;;5096134;28;20207;-86
2022/02/07 03:39:23;;;;;;;3.28;1.33;;;;;;;;;;5094941;28;20226;-86
2022/02/07 03:41:50;;;;;;;3.00;1.92;;;;;;;;;;5095250;28;20599;-87
2022/02/07 03:44:17;;;;;;;6.05;2.03;;;;;;;;;;5094052;28;20200;-87
2022/02/07 03:46:46;;;;;;;4.35;1.55;;;;;;;;;;5094340;28;20207;-86
2022/02/07 03:49:13;;;;;;;6.90;1.67;;;;;;;;;;5094267;28;20230;-86
2022/02/07 03:51:46;;;;;;;3.42;1.75;;;;;;;;;;5095125;28;20228;-86
2022/02/07 03:54:13;;;;;;;3.42;1.92;;;;;;;;;;5096134;28;20620;-87
2022/02/07 03:56:41;;;;;;;2.85;1.70;;;;;;;;;;5095383;28;20200;-86
2022/02/07 03:59:08;;;;;;;4.70;1.88;;;;;;;;;;5095003;28;20204;-86
2022/02/07 04:01:36;;;;;;;5.72;1.90;;;;;;;;;;5093922;28;20220;-86
2022/02/07 04:04:05;;;;;;;7.45;2.40;;;;;;;;;;5095104;28;20211;-86
2022/02/07 04:06:33;;;;;;;4.72;1.80;;;;;;;;;;5095567;28;20299;-86
2022/02/07 04:09:06;;;;;;;3.40;1.50;;;;;;;;;;5094792;28;20211;-86
2022/02/07 04:11:38;;;;;;;4.93;1.95;;;;;;;;;;5094475;28;20703;-86
2022/02/07 04:14:06;;;;;;;4.90;1.33;;;;;;;;;;5095283;28;20196;-86
2022/02/07 04:16:37;;;;;;;6.18;1.58;;;;;;;;;;5095255;28;20196;-86
2022/02/07 04:19:14;;;;;;;7.03;2.20;;;;;;;;;;5095850;28;20200;-86
2022/02/07 04:21:44;;;;;;;6.05;1.58;;;;;;;;;;5096302;28;20239;-86
2022/02/07 04:24:11;;;;;;;4.97;1.77;;;;;;;;;;5095883;28;20236;-86
2022/02/07 04:26:39;;;;;;;4.63;1.40;;;;;;;;;;5095486;28;20200;-86
2022/02/07 04:29:06;;;;;;;3.60;1.40;;;;;;;;;;5094248;28;20204;-86
2022/02/07 04:31:34;;;;;;;7.60;2.28;;;;;;;;;;5093986;28;20237;-87
2022/02/07 04:34:01;;;;;;;4.55;1.65;;;;;;;;;;5094811;28;20215;-87
2022/02/07 04:36:30;;;;;;;6.57;2.42;;;;;;;;;;5096335;28;20200;-86
2022/02/07 04:38:57;;;;;;;4.80;1.60;;;;;;;;;;5093813;28;20204;-86
2022/02/07 04:41:25;;;;;;;4.60;2.78;;;;;;;;;;5094549;28;20212;-86
2022/02/07 04:43:57;;;;;;;5.63;2.00;;;;;;;;;;5094067;28;20577;-86
2022/02/07 04:49:19;;;;;;;4.20;2.08;;;;;;;;;;5094368;28;20211;-87
2022/02/07 04:52:01;;;;;;;3.58;2.30;;;;;;;;;;5093048;28;20220;-87
2022/02/07 04:54:50;;;;;;;11.15;4.00;;;;;;;;;;5094193;28;20230;-86
2022/02/07 04:57:42;;;;;;;4.43;1.92;;;;;;;;;;5094113;28;20192;-85
2022/02/07 05:00:25;;;;;;;6.72;2.67;;;;;;;;;;5094275;28;20220;-87
2022/02/07 05:03:01;;;;;;;5.30;2.83;;;;;;;;;;5093760;28;20228;-85
2022/02/07 05:13:41;;;;;;;5.25;1.55;;;;;;;;;;5094547;28;20203;-86
2022/02/07 05:13:53;;;;;;;6.13;1.63;;;;;;;;;;5093163;28;20223;-86
2022/02/07 05:16:25;;;;;;;3.10;1.30;;;;;;;;;;5093646;28;20200;-86
2022/02/07 05:18:56;;;;;;;6.45;2.38;;;;;;;;;;5094378;28;20578;-86
2022/02/07 05:21:24;;;;;;;9.95;2.15;;;;;;;;;;5103980;22;20239;-84
2022/02/07 05:23:53;;;;;;;3.10;1.50;;;;;;;;;;5094433;28;20254;-84
2022/02/07 05:26:22;;;;;;;3.53;1.73;;;;;;;;;;5094791;28;20208;-84
2022/02/07 05:28:49;;;;;;;7.18;2.38;;;;;;;;;;5094699;28;20749;-84
2022/02/07 05:31:19;;;;;;;8.88;2.38;;;;;;;;;;5093999;28;20200;-84
2022/02/07 05:33:46;;;;;;;3.67;2.05;;;;;;;;;;5094940;28;20577;-85
2022/02/07 05:36:14;;;;;;;3.25;1.60;;;;;;;;;;5094999;28;20211;-83
2022/02/07 05:38:46;;;;;;;5.95;1.45;;;;;;;;;;5094802;28;20228;-84
2022/02/07 05:41:16;;;;;;;5.47;1.67;;;;;;;;;;5094901;28;20192;-84
2022/02/07 05:43:47;;;;;;;5.78;1.80;;;;;;;;;;5094556;28;20207;-84
2022/02/07 05:46:14;;;;;;;3.65;1.30;;;;;;;;;;5094939;28;20295;-86
2022/02/07 05:48:42;;;;;;;5.25;1.75;;;;;;;;;;5092682;28;20219;-87
2022/02/07 05:51:09;;;;;;;6.68;3.58;;;;;;;;;;5096582;28;20200;-86
2022/02/07 05:53:36;;;;;;;4.88;1.70;;;;;;;;;;5097519;28;20224;-86
2022/02/07 05:56:05;;;;;;;4.57;2.25;;;;;;;;;;5095642;28;20208;-88
2022/02/07 05:58:34;;;;;;;3.28;2.17;;;;;;;;;;5095659;28;20220;-88
2022/02/07 06:01:01;;;;;;;6.10;2.33;;;;;;;;;;5095933;28;20214;-87
2022/02/07 06:03:29;;;;;;;4.75;1.63;;;;;;;;;;5096541;28;20254;-87
2022/02/07 06:05:56;;;;;;;2.90;1.63;;;;;;;;;;5095941;28;20208;-88
2022/02/07 06:08:24;;;;;;;14.10;2.20;;;;;;;;;;5095833;28;20702;-88
2022/02/07 06:10:51;;;;;;;3.30;1.95;;;;;;;;;;5095334;28;20200;-88
2022/02/07 06:13:19;;;;;;;4.78;2.33;;;;;;;;;;5094801;28;20224;-87
2022/02/07 06:15:48;;;;;;;4.75;2.72;;;;;;;;;;5095182;28;20203;-87
2022/02/07 06:18:18;;;;;;;4.32;1.80;;;;;;;;;;5094636;28;20212;-87
2022/02/07 06:20:47;;;;;;;4.30;2.10;;;;;;;;;;5094826;28;20220;-88
2022/02/07 06:23:15;;;;;;;2.97;1.65;;;;;;;;;;5094639;28;20283;-87
2022/02/07 06:25:42;;;;;;;4.97;2.03;;;;;;;;;;5094777;28;20207;-87
2022/02/07 06:28:10;;;;;;;3.90;1.95;;;;;;;;;;5095048;28;20723;-87
2022/02/07 06:30:37;;;;;;;2.60;1.33;;;;;;;;;;5094817;28;20203;-89
2022/02/07 06:33:07;;;;;;;4.97;1.70;;;;;;;;;;5094328;28;20224;-87
2022/02/07 06:35:34;;;;;;;3.55;1.33;;;;;;;;;;5094964;28;20227;-87
2022/02/07 06:38:02;;;;;;;2.03;1.33;;;;;;;;;;5094541;28;20200;-87
2022/02/07 06:40:29;;;;;;;5.25;1.65;;;;;;;;;;5094666;28;20211;-87
2022/02/07 06:42:57;;;;;;;2.45;1.30;;;;;;;;;;5094781;28;20215;-87
2022/02/07 06:45:24;;;;;;;5.90;1.63;;;;;;;;;;5094996;28;20204;-88
2022/02/07 06:47:52;;;;;;;4.18;1.50;;;;;;;;;;5094785;28;20216;-87
2022/02/07 06:50:20;;;;;;;2.83;1.23;;;;;;;;;;5094620;28;20196;-88
2022/02/07 06:52:48;;;;;;;8.18;2.10;;;;;;;;;;5094701;28;20224;-87
2022/02/07 06:55:15;;;;;;;7.50;2.70;;;;;;;;;;5094871;28;20197;-87
2022/02/07 06:57:42;;;;;;;5.70;2.38;;;;;;;;;;5095577;28;20215;-87
2022/02/07 07:00:12;;;;;;;4.30;1.55;;;;;;;;;;5094030;28;20230;-86
2022/02/07 07:02:42;;;;;;;4.40;1.45;;;;;;;;;;5095188;28;20227;-87
2022/02/07 07:05:13;;;;;;;5.07;2.38;;;;;;;;;;5094892;28;20196;-87
2022/02/07 07:07:42;;;;;;;2.47;1.50;;;;;;;;;;5094483;28;20303;-87
2022/02/07 07:10:10;;;;;;;5.32;1.95;;;;;;;;;;5094423;28;20216;-87
2022/02/07 07:12:38;;;;;;;4.88;2.03;;;;;;;;;;5094729;28;20230;-87
2022/02/07 07:15:11;;;;;;;4.00;1.63;;;;;;;;;;5094897;28;20192;-87
2022/02/07 07:17:38;;;;;;;5.45;2.10;;;;;;;;;;5094207;28;20200;-87
2022/02/07 07:20:08;;;;;;;4.43;1.70;;;;;;;;;;5094023;28;20228;-87
2022/02/07 07:22:36;;;;;;;3.63;1.48;;;;;;;;;;5093520;28;20572;-88
2022/02/07 07:25:08;;;;;;;5.80;1.88;;;;;;;;;;5093420;28;20200;-86
2022/02/07 07:27:47;;;;;;;6.07;2.58;;;;;;;;;;5093915;28;20664;-87
2022/02/07 07:30:14;;;;;;;5.53;2.00;;;;;;;;;;5094513;28;20204;-87
2022/02/07 07:32:41;;;;;;;4.53;1.63;;;;;;;;;;5094128;28;20228;-87
2022/02/07 07:35:09;;;;;;;4.75;1.98;;;;;;;;;;5093587;28;20192;-88
2022/02/07 07:37:36;;;;;;;7.65;2.40;;;;;;;;;;5093721;28;20243;-87
2022/02/07 07:40:06;;;;;;;5.28;1.60;;;;;;;;;;5093891;28;20224;-87
2022/02/07 07:42:34;;;;;;;6.03;2.63;;;;;;;;;;5093733;28;20215;-88
2022/02/07 07:45:01;;;;;;;3.65;2.03;;;;;;;;;;5093570;28;20196;-87
2022/02/07 07:47:30;;;;;;;5.18;1.92;;;;;;;;;;5093692;28;20243;-88
2022/02/07 07:50:06;;;;;;;7.38;1.80;;;;;;;;;;5093750;28;20596;-87
2022/02/07 07:52:56;;;;;;;5.88;2.20;;;;;;;;;;5093506;28;20656;-87
2022/02/07 08:01:14;;;;;;;4.50;1.80;;;;;;;;;;5093791;28;20655;-87
2022/02/07 08:01:23;;;;;;;3.30;1.92;;;;;;;;;;5098220;28;20211;-88
2022/02/07 08:03:53;;;;;;;5.55;2.60;;;;;;;;;;5093446;28;20231;-87
2022/02/07 08:06:24;;;;;;;3.13;1.75;;;;;;;;;;5096482;28;20572;-88
2022/02/07 08:09:14;;;;;;;10.60;2.47;;;;;;;;;;5094638;28;20224;-87
2022/02/07 08:11:42;;;;;;;5.13;1.85;;;;;;;;;;5093944;28;20204;-88
2022/02/07 08:14:09;;;;;;;4.80;3.25;;;;;;;;;;5093073;28;20692;-87
2022/02/07 08:16:37;;;;;;;3.95;2.05;;;;;;;;;;5093268;28;20197;-88
2022/02/07 08:19:07;;;;;;;2.60;1.80;;;;;;;;;;5093139;28;20227;-88
2022/02/07 08:21:35;;;;;;;5.45;1.85;;;;;;;;;;5093305;28;20215;-88
2022/02/07 08:24:04;;;;;;;6.93;2.30;;;;;;;;;;5093274;28;20207;-88
2022/02/07 08:26:32;;;;;;;4.82;1.60;;;;;;;;;;5093198;28;20200;-88
2022/02/07 08:29:00;;;;;;;4.38;2.05;;;;;;;;;;5092972;28;20700;-88
2022/02/07 08:31:28;;;;;;;6.13;2.88;;;;;;;;;;5092926;28;20200;-88
2022/02/07 08:33:55;;;;;;;12.35;2.25;;;;;;;;;;5092735;28;20251;-88
2022/02/07 08:36:22;;;;;;;5.03;2.80;;;;;;;;;;5093242;28;20200;-89
2022/02/07 08:38:50;;;;;;;4.13;2.05;;;;;;;;;;5092696;28;20251;-88
2022/02/07 08:41:17;;;;;;;7.93;3.38;;;;;;;;;;5092705;28;20562;-88
2022/02/07 08:43:45;;;;;;;5.60;2.28;;;;;;;;;;5093404;28;20199;-88
2022/02/07 08:46:14;;;;;;;5.40;3.13;;;;;;;;;;5092993;28;20204;-88
2022/02/07 08:48:42;;;;;;;4.78;3.15;;;;;;;;;;5092756;28;20220;-88
2022/02/07 08:51:09;;;;;;;8.82;3.30;;;;;;;;;;5092595;28;20204;-88
2022/02/07 08:53:41;;;;;;;6.20;2.83;;;;;;;;;;5092461;28;20227;-88
2022/02/07 08:56:09;;;;;;;5.50;2.17;;;;;;;;;;5092809;28;20211;-88
2022/02/07 08:58:39;;;;;;;6.32;2.75;;;;;;;;;;5092717;28;20223;-89
2022/02/07 09:01:14;;;;;;;6.43;2.50;;;;;;;;;;5092641;28;20287;-88
2022/02/07 09:06:34;;;;;;;9.45;2.35;;;;;;;;;;5069969;28;20297;-87
2022/02/07 09:09:17;;;;;;;9.07;3.03;;;;;;;;;;5093916;28;20220;-88
2022/02/07 09:11:45;;;;;;;4.22;2.10;;;;;;;;;;5093345;28;20734;-87
2022/02/07 09:14:20;;;;;;;6.45;2.88;;;;;;;;;;5092970;28;20231;-88
2022/02/07 09:16:51;;;;;;;7.45;3.08;;;;;;;;;;5093647;28;20212;-88
2022/02/07 09:19:20;;;;;;;5.05;2.53;;;;;;;;;;5094198;28;20618;-87
2022/02/07 09:21:51;;;;;;;10.00;3.85;;;;;;;;;;5093963;28;20210;-88
2022/02/07 09:24:21;;;;;;;7.88;2.15;;;;;;;;;;5095114;28;20643;-87
2022/02/07 09:26:49;;;;;;;4.72;2.70;;;;;;;;;;5100307;28;20306;-87
2022/02/07 09:29:18;;;;;;;6.38;2.30;;;;;;;;;;5099167;28;20602;-87
2022/02/07 09:31:46;;;;;;;5.97;2.40;;;;;;;;;;5098539;28;20204;-88
2022/02/07 09:34:14;;;;;;;6.57;2.60;;;;;;;;;;5100770;28;20274;-87
2022/02/07 09:37:00;;;;;;;4.75;2.33;;;;;;;;;;5100143;28;20211;-87
2022/02/07 09:39:36;;;;;;;6.72;2.63;;;;;;;;;;5096204;28;20254;-88
2022/02/07 09:42:04;;;;;;;7.10;2.70;;;;;;;;;;5097711;28;20208;-87
2022/02/07 09:44:45;;;;;;;5.53;2.42;;;;;;;;;;5096358;28;20326;-87
2022/02/07 09:47:31;;;;;;;5.18;2.05;;;;;;;;;;5096660;28;20270;-88
2022/02/07 09:50:10;;;;;;;10.45;2.90;;;;;;;;;;5096936;28;20594;-88
2022/02/07 09:52:40;;;;;;;6.88;2.53;;;;;;;;;;5097075;28;20204;-87
2022/02/07 09:58:48;;;;;;;6.88;2.03;;;;;;;;;;5088891;28;20646;-87
2022/02/07 10:01:28;;;;;;;5.88;2.20;;;;;;;;;;5096116;28;20211;-87
2022/02/07 10:08:15;;;;;;;4.32;2.58;;;;;;;;;;4892132;29;20205;-87
2022/02/07 10:11:38;;;;;;;3.78;2.25;;;;;;;;;;5042942;28;20683;-88
2022/02/07 10:14:37;;;;;;;7.57;2.65;;;;;;;;;;5097005;28;20733;-87
2022/02/07 10:20:41;;;;;;;10.13;2.60;;;;;;;;;;5013961;28;20234;-88
2022/02/07 10:34:49;;;;;;;6.95;2.75;;;;;;;;;;5096213;28;20345;-87
2022/02/07 10:40:26;;;;;;;9.27;3.13;;;;;;;;;;5084103;28;20707;-87
2022/02/07 10:43:11;;;;;;;7.80;3.35;;;;;;;;;;5095021;28;20204;-88
2022/02/07 10:45:59;;;;;;;10.38;3.67;;;;;;;;;;5095442;28;20204;-87
2022/02/07 10:48:37;;;;;;;7.82;2.90;;;;;;;;;;5095377;28;20224;-87
2022/02/07 10:51:14;;;;;;;9.32;2.63;;;;;;;;;;5095373;28;20219;-87
2022/02/07 10:53:45;;;;;;;9.45;3.63;;;;;;;;;;5094569;28;20200;-87
2022/02/07 10:56:16;;;;;;;6.68;2.88;;;;;;;;;;5094348;28;20221;-87
2022/02/07 10:58:46;;;;;;;12.05;3.85;;;;;;;;;;5095116;28;20224;-87
2022/02/07 11:01:18;;;;;;;11.25;4.10;;;;;;;;;;5094779;28;20664;-87
2022/02/07 11:03:50;;;;;;;7.50;3.67;;;;;;;;;;5094649;28;20200;-87
2022/02/07 11:07:35;;;;;;;8.18;3.10;;;;;;;;;;5095073;28;20204;-87
2022/02/07 11:11:01;;;;;;;5.65;2.70;;;;;;;;;;4954182;28;20633;-87
2022/02/07 11:13:45;;;;;;;6.97;3.53;;;;;;;;;;5076071;28;20236;-87
2022/02/07 11:16:20;;;;;;;8.40;3.70;;;;;;;;;;5093884;28;20258;-88
2022/02/07 11:19:01;;;;;;;14.05;4.28;;;;;;;;;;5094269;28;20230;-86
2022/02/07 11:21:37;;;;;;;10.15;3.20;;;;;;;;;;5094062;28;20216;-88
2022/02/07 11:24:30;;;;;;;14.02;5.60;;;;;;;;;;5094536;28;20553;-87
2022/02/07 11:27:37;;;;;;;8.32;2.50;;;;;;;;;;5094452;28;20652;-87
2022/02/07 11:30:10;;;;;;;7.30;3.35;;;;;;;;;;5093882;28;20228;-88
2022/02/07 11:32:56;;;;;;;9.57;2.35;;;;;;;;;;5094063;28;20208;-87
2022/02/07 11:35:30;;;;;;;9.32;3.30;;;;;;;;;;5093962;28;20267;-87
2022/02/07 11:38:14;;;;;;;10.45;3.45;;;;;;;;;;5093600;28;20200;-86
2022/02/07 11:40:44;;;;;;;8.93;3.38;;;;;;;;;;5093563;28;20279;-87
2022/02/07 11:43:15;;;;;;;7.63;3.10;;;;;;;;;;5093793;28;20193;-86
2022/02/07 11:45:58;;;;;;;9.00;3.90;;;;;;;;;;5094484;28;20215;-87
2022/02/07 11:48:35;;;;;;;11.32;2.88;;;;;;;;;;5093561;28;20231;-87
2022/02/07 11:51:06;;;;;;;7.28;3.33;;;;;;;;;;5093273;28;20648;-87
2022/02/07 11:53:39;;;;;;;8.85;3.20;;;;;;;;;;5093491;28;20767;-87
2022/02/07 11:56:17;;;;;;;9.48;2.97;;;;;;;;;;5093294;28;20791;-87
2022/02/07 11:59:16;;;;;;;8.10;3.30;;;;;;;;;;5093356;28;20666;-88
2022/02/07 12:02:01;;;;;;;5.30;2.30;;;;;;;;;;5093835;28;20197;-87
2022/02/07 12:04:36;;;;;;;8.98;3.35;;;;;;;;;;5093406;28;20215;-88
2022/02/07 12:07:27;;;;;;;10.20;3.67;;;;;;;;;;5093495;28;20287;-87
2022/02/07 12:10:26;;;;;;;8.30;3.42;;;;;;;;;;5093061;28;20224;-87
2022/02/07 12:12:56;;;;;;;6.20;2.78;;;;;;;;;;5093007;28;20208;-86
2022/02/07 12:15:32;;;;;;;8.98;3.67;;;;;;;;;;5093348;28;20259;-86
2022/02/07 12:18:17;;;;;;;11.18;3.20;;;;;;;;;;5093611;28;20246;-88
2022/02/07 12:20:48;;;;;;;5.88;2.50;;;;;;;;;;5093464;28;20593;-86
2022/02/07 12:23:18;;;;;;;6.35;2.70;;;;;;;;;;5092900;28;20736;-87
2022/02/07 12:25:51;;;;;;;3.83;1.85;;;;;;;;;;5093112;28;20200;-88
2022/02/07 12:28:30;;;;;;;6.22;2.20;;;;;;;;;;5093412;28;20274;-88
2022/02/07 12:31:07;;;;;;;5.85;2.65;;;;;;;;;;5093639;28;20200;-86
2022/02/07 12:33:38;;;;;;;6.70;3.05;;;;;;;;;;5093316;28;20206;-87
2022/02/07 12:36:07;;;;;;;6.40;2.60;;;;;;;;;;5093823;28;20243;-87
2022/02/07 12:38:38;;;;;;;5.72;3.10;;;;;;;;;;5094189;28;20216;-86
2022/02/07 12:41:09;;;;;;;8.93;3.53;;;;;;;;;;5095859;28;20299;-86
2022/02/07 12:43:39;;;;;;;5.47;2.50;;;;;;;;;;5093522;28;20287;-86
2022/02/07 12:46:10;;;;;;;7.25;3.33;;;;;;;;;;5093831;28;20196;-86
2022/02/07 12:48:48;;;;;;;8.80;2.75;;;;;;;;;;5093412;28;20259;-86
2022/02/07 12:51:15;;;;;;;12.35;2.90;;;;;;;;;;5093563;28;20267;-86
2022/02/07 12:53:43;;;;;;;4.47;2.90;;;;;;;;;;5094256;28;20188;-87
2022/02/07 12:56:11;;;;;;;6.88;2.92;;;;;;;;;;5093704;28;20226;-86
2022/02/07 12:58:43;;;;;;;10.15;2.92;;;;;;;;;;5093268;28;20219;-87
2022/02/07 13:01:22;;;;;;;6.43;2.88;;;;;;;;;;5098809;28;20294;-87
2022/02/07 13:03:55;;;;;;;6.78;2.78;;;;;;;;;;5096948;28;20203;-87
2022/02/07 13:06:29;;;;;;;3.58;2.20;;;;;;;;;;5098380;28;20200;-86
2022/02/07 13:08:58;;;;;;;5.38;2.58;;;;;;;;;;5097613;28;20223;-86
2022/02/07 13:11:31;;;;;;;9.65;3.42;;;;;;;;;;5097598;28;20288;-87
2022/02/07 13:13:59;;;;;;;4.82;2.25;;;;;;;;;;5096632;28;20710;-87
2022/02/07 13:16:31;;;;;;;5.53;2.60;;;;;;;;;;5097488;28;20220;-87
2022/02/07 13:19:12;;;;;;;8.23;2.78;;;;;;;;;;5097712;28;20616;-86
2022/02/07 13:21:43;;;;;;;7.10;2.55;;;;;;;;;;5096288;28;20625;-86
2022/02/07 13:24:13;;;;;;;3.28;2.20;;;;;;;;;;5096281;28;20654;-87
2022/02/07 13:26:46;;;;;;;6.80;2.67;;;;;;;;;;5096981;28;20397;-87
2022/02/07 13:29:19;;;;;;;5.90;2.50;;;;;;;;;;5096390;28;20662;-86
2022/02/07 13:31:54;;;;;;;4.50;2.05;;;;;;;;;;5096529;28;20284;-86
2022/02/07 13:34:25;;;;;;;3.92;1.50;;;;;;;;;;5101139;28;20208;-86
2022/02/07 13:36:53;;;;;;;4.47;1.77;;;;;;;;;;5101248;28;20714;-86
2022/02/07 13:39:21;;;;;;;6.38;2.85;;;;;;;;;;5099858;28;20212;-86
2022/02/07 13:42:03;;;;;;;5.20;2.55;;;;;;;;;;5099061;28;20196;-87
2022/02/07 13:44:30;;;;;;;7.35;2.70;;;;;;;;;;5096413;28;20193;-86
2022/02/07 13:47:03;;;;;;;4.90;1.65;;;;;;;;;;5096257;28;20200;-86
2022/02/07 13:49:32;;;;;;;4.70;1.55;;;;;;;;;;5096163;28;20228;-86
2022/02/07 13:51:59;;;;;;;6.05;3.13;;;;;;;;;;5096121;28;20219;-87
2022/02/07 13:54:32;;;;;;;5.90;2.00;;;;;;;;;;5096399;28;20686;-86
2022/02/07 13:57:01;;;;;;;3.20;1.92;;;;;;;;;;5095390;28;20215;-86
2022/02/07 13:59:37;;;;;;;5.00;2.38;;;;;;;;;;5096459;28;20223;-86
2022/02/07 14:02:06;;;;;;;9.63;2.65;;;;;;;;;;5095921;28;20647;-86
2022/02/07 14:04:35;;;;;;;4.85;2.13;;;;;;;;;;5094891;28;20204;-86
2022/02/07 14:07:15;;;;;;;16.75;3.65;;;;;;;;;;5096941;28;20201;-86
2022/02/07 14:09:43;;;;;;;6.22;3.30;;;;;;;;;;5096580;28;20310;-85
2022/02/07 14:12:13;;;;;;;3.22;2.00;;;;;;;;;;5095978;28;20207;-86
2022/02/07 14:14:40;;;;;;;8.02;2.97;;;;;;;;;;5095731;28;20239;-86
2022/02/07 14:17:08;;;;;;;5.78;2.75;;;;;;;;;;5096060;28;20306;-86
2022/02/07 14:19:41;;;;;;;6.10;2.63;;;;;;;;;;5095649;28;20251;-86
2022/02/07 14:22:10;;;;;;;5.60;2.35;;;;;;;;;;5096326;28;20200;-86
2022/02/07 14:24:39;;;;;;;6.35;3.15;;;;;;;;;;5096000;28;20199;-86
2022/02/07 14:27:08;;;;;;;4.55;2.00;;;;;;;;;;5095526;28;20200;-86
2022/02/07 14:29:35;;;;;;;6.55;1.98;;;;;;;;;;5095776;28;20239;-85
2022/02/07 14:32:03;;;;;;;9.95;3.50;;;;;;;;;;5095443;28;20193;-85
2022/02/07 14:34:30;;;;;;;8.40;3.92;;;;;;;;;;5095744;28;20203;-85
2022/02/07 14:36:59;;;;;;;6.40;2.60;;;;;;;;;;5095412;28;20231;-85
2022/02/07 14:39:26;;;;;;;8.45;4.70;;;;;;;;;;5095126;28;20224;-85
2022/02/07 14:41:53;;;;;;;13.18;3.63;;;;;;;;;;5095952;28;20200;-85
2022/02/07 14:44:30;;;;;;;6.63;2.35;;;;;;;;;;5096226;28;20235;-86
2022/02/07 14:47:06;;;;;;;6.72;2.03;;;;;;;;;;5096022;28;20200;-85
2022/02/07 14:49:34;;;;;;;7.25;2.55;;;;;;;;;;5096116;28;20302;-86
2022/02/07 14:52:04;;;;;;;8.43;2.80;;;;;;;;;;5095302;28;20199;-86
2022/02/07 14:54:34;;;;;;;3.90;2.75;;;;;;;;;;5096341;28;20291;-85
2022/02/07 14:57:02;;;;;;;4.07;2.38;;;;;;;;;;5096167;28;20307;-85
2022/02/07 14:59:29;;;;;;;4.45;2.50;;;;;;;;;;5096045;28;20228;-86
2022/02/07 15:01:57;;;;;;;7.43;2.90;;;;;;;;;;5094787;28;20188;-85
2022/02/07 15:04:25;;;;;;;5.28;3.03;;;;;;;;;;5094835;28;20279;-86
2022/02/07 15:06:52;;;;;;;6.47;2.70;;;;;;;;;;5094591;28;20196;-86
2022/02/07 15:09:21;;;;;;;3.15;1.95;;;;;;;;;;5094881;28;20220;-86
2022/02/07 15:11:49;;;;;;;4.97;2.63;;;;;;;;;;5094513;28;20209;-85
2022/02/07 15:14:17;;;;;;;8.00;3.88;;;;;;;;;;5095067;28;20202;-85
2022/02/07 15:16:44;;;;;;;3.40;2.08;;;;;;;;;;5094737;28;20212;-85
2022/02/07 15:19:12;;;;;;;7.50;3.28;;;;;;;;;;5094617;28;20220;-86
2022/02/07 15:21:39;;;;;;;5.60;2.85;;;;;;;;;;5093936;28;20586;-85
2022/02/07 15:24:07;;;;;;;8.68;2.92;;;;;;;;;;5094457;28;20196;-85
2022/02/07 15:26:36;;;;;;;6.70;3.83;;;;;;;;;;5094625;28;20207;-85
2022/02/07 15:29:03;;;;;;;7.32;2.22;;;;;;;;;;5094396;28;20217;-85
2022/02/07 15:31:32;;;;;;;5.72;2.60;;;;;;;;;;5094191;28;20635;-85
2022/02/07 15:34:00;;;;;;;3.78;1.98;;;;;;;;;;5094274;28;20204;-85
2022/02/07 15:36:28;;;;;;;3.45;2.28;;;;;;;;;;5094864;28;20197;-85
2022/02/07 15:38:55;;;;;;;5.28;1.95;;;;;;;;;;5094323;28;20281;-86
2022/02/07 15:41:23;;;;;;;8.20;2.50;;;;;;;;;;5096017;28;20661;-85
2022/02/07 15:43:52;;;;;;;12.50;2.35;;;;;;;;;;5096254;28;20211;-87
2022/02/07 15:46:19;;;;;;;9.80;2.85;;;;;;;;;;5096679;28;20470;-86
2022/02/07 15:48:46;;;;;;;2.65;1.52;;;;;;;;;;5096198;28;20212;-87
2022/02/07 15:51:15;;;;;;;7.82;2.88;;;;;;;;;;5096639;28;20257;-88
2022/02/07 15:53:43;;;;;;;4.50;1.70;;;;;;;;;;5098425;28;20204;-86
2022/02/07 15:56:10;;;;;;;5.90;2.90;;;;;;;;;;5096326;28;20220;-86
2022/02/07 15:58:38;;;;;;;5.93;1.70;;;;;;;;;;5096357;28;20220;-86
2022/02/07 16:01:07;;;;;;;4.15;1.75;;;;;;;;;;5097541;28;20249;-86
2022/02/07 16:03:34;;;;;;;7.15;2.72;;;;;;;;;;5098997;28;20194;-86
2022/02/07 16:06:02;;;;;;;6.45;2.13;;;;;;;;;;5096081;28;20204;-86
2022/02/07 16:08:29;;;;;;;2.83;1.60;;;;;;;;;;5097029;28;20223;-85
2022/02/07 16:10:59;;;;;;;3.60;1.48;;;;;;;;;;5097500;28;20207;-87
2022/02/07 16:13:32;;;;;;;2.78;2.00;;;;;;;;;;5096384;28;20287;-88
2022/02/07 16:16:00;;;;;;;3.50;1.63;;;;;;;;;;5097771;28;20264;-88
2022/02/07 16:18:28;;;;;;;2.53;1.48;;;;;;;;;;5097691;28;20220;-88
2022/02/07 16:20:58;;;;;;;5.55;1.90;;;;;;;;;;5097249;28;20211;-89
2022/02/07 16:23:25;;;;;;;7.20;3.08;;;;;;;;;;5097964;28;20652;-87
2022/02/07 16:25:53;;;;;;;3.28;1.70;;;;;;;;;;5096765;28;20204;-87
2022/02/07 16:28:21;;;;;;;3.35;1.77;;;;;;;;;;5097501;28;20220;-88
2022/02/07 16:30:49;;;;;;;4.15;2.25;;;;;;;;;;5096464;28;20192;-87
2022/02/07 16:33:17;;;;;;;4.97;2.00;;;;;;;;;;5096391;28;20649;-87
2022/02/07 16:35:47;;;;;;;4.05;2.20;;;;;;;;;;5098396;28;20192;-88
2022/02/07 16:38:15;;;;;;;3.33;2.05;;;;;;;;;;5099092;28;20595;-89
2022/02/07 16:40:44;;;;;;;6.68;2.92;;;;;;;;;;5094310;28;20208;-86
2022/02/07 16:43:13;;;;;;;7.30;2.38;;;;;;;;;;5094272;28;20226;-86
2022/02/07 16:46:03;;;;;;;4.93;2.30;;;;;;;;;;5094215;28;20192;-86